KBNA/BNA METAR and TAF weather

Enter ICAO airport designator
Station Type Date Time Source
KBNA METAR 2018/12/13 14:53 UTC NOAA

KBNA 131453Z 16009KT 10SM OVC017 11/05 A3013 RMK AO2 SLP202 T01060050 53009


Station Type Date Time Source
KBNA Decoded METAR 2018/12/13 14:53 UTC NOAA

NASHVILLE INTERNATIONAL AIRPORT, TN, United States (KBNA) 36-07N 086-41W 210M
Dec 13, 2018 - 09:53 AM EST / 2018.12.13 1453 UTC
Wind: from the SSE (160 degrees) at 10 MPH (9 KT):0
Visibility: 10 mile(s):0
Sky conditions: overcast
Temperature: 51.1 F (10.6 C)
Dew Point: 41.0 F (5.0 C)
Relative Humidity: 68%
Pressure (altimeter): 30.13 in. Hg (1020 hPa)
Pressure tendency: 0.03 inches (0.9 hPa) higher than three hours ago
ob: KBNA 131453Z 16009KT 10SM OVC017 11/05 A3013 RMK AO2 SLP202 T01060050 53009
cycle: 15

Station Type Date Time Source
KBNA TAF 2018/12/13 12:22 UTC NOAA

TAF KBNA 131120Z 1312/1412 15005KT P6SM OVC070
FM131700 17013G20KT P6SM OVC250
FM140500 15010KT P6SM VCSH OVC040
FM141000 12011KT 6SM -RA OVC025


Example: see airport list